Archival Weather

Chicago O'Hare International

Chicago, Illinois (KORD)

Report from: Thursday, June 23, 2022 11:51 AM CDT
Current time: Sunday, June 26, 2022 12:32 PM CDT

Current weather
Weather history
Weather forecast

Temperature27.2°C (81.0°F)
Heat index27.1°C (80.8°F)
Dew point10.6°C (51.1°F)
Winds 5 kts (2.6 m/s, 5.8 mph) East-Southeast (110°)
Visibility10 mi. (16.1 km)
Clouds Few clouds 25,000 ft. (7,620 m)
Altimeter30.06 in.Hg (1018 mB)
Relative humidity35 %
Density altitude1,431 ft. (436 m)
Sea-level pressure101.8 kPa (1018 mB, 30.05 in.Hg)
Remarks Automated weather observing station with precipitation discriminator
Flight conditions Visual Meteorological Conditions
Raw dataKORD 231651Z 11005KT 10SM FEW250 27/11 A3006 RMK AO2 SLP175 T02720106
An error has occurred. This application may no longer respond until reloaded. Reload 🗙